Flight Track Log - Related Links

Times and Time Zones

All times are in EDT time to prevent confusion due to time zone crossing. See the AWI3883 flight status page for this flight to view local times or setup timezone preferences in your user account.

Time Position Orientation Groundspeed Altitude Reporting Facility
EDT Latitude Longitude Course Direction KTS MPH feet Rate Location/Type
Mon 05:14:29 PM 43.1039 -76.1828 264° West 170 196 2,500  Level Boston Center
Mon 05:15:31 PM 43.0683 -76.2489 234° Southwest 240 276 4,300 2,328 Climbing Boston Center
Mon 05:17:32 PM 42.9506 -76.3719 217° Southwest 274 315 9,600 1,890 Climbing New York Center
Mon 05:18:32 PM 42.8750 -76.4303 210° Southwest 292 336 10,000 1,250 Climbing New York Center
Mon 05:19:32 PM 42.7975 -76.4886 209° Southwest 317 365 12,100 2,000 Climbing New York Center
Mon 05:20:32 PM 42.7197 -76.5467 209° Southwest 322 371 14,000 1,785 Climbing New York Center
Mon 05:21:33 PM 42.6497 -76.6164 216° Southwest 327 376 15,700 1,686 Climbing New York Center
Mon 05:22:33 PM 42.5856 -76.6925 221° Southwest 322 371 17,400 1,450 Climbing New York Center
Mon 05:23:33 PM 42.5169 -76.7733 221° Southwest 322 371 18,600 1,100 Climbing New York Center
Mon 05:24:33 PM 42.4328 -76.8358 209° Southwest 329 379 19,600 1,059 Climbing New York Center
Mon 05:25:32 PM 42.3481 -76.9039 211° Southwest 350 403 20,700 850 Climbing New York Center
Mon 05:26:33 PM 42.2636 -76.9686 210° Southwest 355 409 21,300 843 Climbing New York Center
Mon 05:27:33 PM 42.1747 -77.0358 209° Southwest 360 414 22,400 850 Climbing New York Center
Mon 05:28:33 PM 42.0878 -77.1033 210° Southwest 366 421 23,000 700 Climbing New York Center
Mon 05:29:33 PM 41.9986 -77.1728 210° Southwest 371 427 23,800 500 Climbing New York Center
Mon 05:30:33 PM 41.9053 -77.2447 210° Southwest 377 434 24,000 100 Climbing New York Center
Mon 05:31:33 PM 41.8139 -77.3164 210° Southwest 382 440 24,000  Level New York Center
Mon 05:32:33 PM 41.7225 -77.3881 210° Southwest 382 440 24,000  Level New York Center
Mon 05:33:33 PM 41.6331 -77.4569 210° Southwest 382 440 24,000  Level New York Center
Mon 05:34:33 PM 41.5442 -77.5203 208° Southwest 377 434 24,000  Level New York Center
Mon 05:35:33 PM 41.4567 -77.5917 211° Southwest 377 434 24,000  Level New York Center
Mon 05:36:33 PM 41.3636 -77.6156 191° South 377 434 24,000  Level New York Center
Mon 05:37:33 PM 41.2561 -77.5661 161° South 372 428 24,000  Level New York Center
Mon 05:38:32 PM 41.1503 -77.5194 162° South 385 443 24,000  Level New York Center
Mon 05:39:32 PM 41.0428 -77.4703 161° South 396 456 24,000 -298 Level New York Center
Mon 05:40:33 PM 40.9369 -77.4242 162° South 396 456 23,400 -793 Descending New York Center
Mon 05:41:33 PM 40.8269 -77.3778 162° South 408 470 22,400 -908 Descending New York Center
Mon 05:42:32 PM 40.7089 -77.3253 161° South 408 470 21,600 -950 Descending New York Center
Mon 05:43:33 PM 40.6092 -77.2858 163° South 413 475 20,500 -1,350 Descending New York Center
Mon 05:44:32 PM 40.4892 -77.2281 160° South 413 475 18,900 -1,250 Descending New York Center
Mon 05:45:33 PM 40.3875 -77.1831 161° South 419 482 18,000 -446 Descending New York Center
Mon 05:46:33 PM 40.2694 -77.1314 162° South 413 475 18,000  Level New York Center
Mon 05:47:32 PM 40.1733 -77.0925 163° South 413 475 18,000  Level New York Center
Mon 05:48:33 PM 40.0553 -77.0383 161° South 413 475 18,000  Level New York Center
Mon 05:49:32 PM 39.9575 -76.9972 162° South 380 437 18,000  Level New York Center
Mon 05:50:33 PM 39.8617 -76.9561 162° South 370 426 18,000 -595 Level New York Center
Mon 05:51:33 PM 39.7678 -76.9156 162° South 359 413 16,800 -1,393 Descending New York Center
Mon 05:52:25 PM 39.6833 -76.8833 164° South 369 425 15,400 -1,664 Descending Potomac TRACON
Mon 05:53:32 PM 39.5833 -76.8333 159° South 368 423 13,500 -1,636 Descending Potomac TRACON
Mon 05:54:26 PM 39.4833 -76.8000 166° South 357 411 12,100 -789 Descending Potomac TRACON
Mon 05:55:26 PM 39.4000 -76.7500 155° Southeast 353 406 12,000 -645 Descending Potomac TRACON
Mon 05:56:27 PM 39.3000 -76.7167 166° South 349 402 10,800 -992 Descending Potomac TRACON
Mon 05:57:27 PM 39.2167 -76.6833 163° South 319 367 10,000 -400 Descending Potomac TRACON
Mon 05:58:27 PM 39.1333 -76.7000 189° South 305 351 10,000 -238 Level Potomac TRACON
Mon 05:59:33 PM 39.0667 -76.7833 224° Southwest 296 341 9,500 -1,041 Descending Potomac TRACON
Mon 06:00:28 PM 39.0167 -76.8500 226° Southwest 291 335 7,900 -1,774 Descending Potomac TRACON
Mon 06:01:28 PM 38.9667 -76.9167 226° Southwest 281 323 6,100 -1,000 Descending Potomac TRACON
Mon 06:02:34 PM 38.9833 -77.0167 282° West 207 238 5,800 -714 Descending Potomac TRACON
Mon 06:03:34 PM 39.0000 -77.0667 293° West 189 217 4,600 -1,211 Descending Potomac TRACON
Mon 06:04:28 PM 39.0333 -77.1167 311° West 194 223 3,500 -842 Descending Potomac TRACON
Mon 06:05:28 PM 39.0000 -77.1500 218° Southwest 180 207 3,000 -429 Descending Potomac TRACON
Mon 06:06:34 PM 38.9333 -77.1333 169° South 192 221 2,600 -650 Descending Potomac TRACON
Mon 06:07:28 PM 38.9167 -77.1000 123° Southeast 157 181 1,700 -939 Descending Potomac TRACON
Mon 06:08:29 PM 38.8833 -77.0500 131° Southeast 149 171 800 -885 Descending Potomac TRACON
Mon 06:10:00 PM 38.8519 -77.0377 180° South  Level Estimated
Mon 06:17:00 PM 38.8500 -77.0333 343° North  Level FlightAware Approximate
Mon 06:18:00 PM 38.8519 -77.0377 343° North  Level Estimated
Mon 06:19:00 PM 38.8500 -77.0333 343° North  Level FlightAware Approximate

Login

Don't have an account? Register now (free) for customized features, flight alerts, and more!